KMTH/MTH METAR and TAF weather

Enter ICAO airport designator
Station Type Date Time Source
KMTH METAR 2021/08/05 03:53 UTC NOAA

KMTH 050353Z AUTO 09008KT 10SM CLR 28/24 A3006 RMK AO2 SLP179 T02830244


Station Type Date Time Source
KMTH Decoded METAR 2021/08/05 03:53 UTC NOAA

MARATHON AIRPORT, FL, United States (KMTH) 24-44N 81-03W 2M
Aug 04, 2021 - 11:53 PM EDT / 2021.08.05 0353 UTC
Wind: from the E (090 degrees) at 9 MPH (8 KT):0
Visibility: 10 mile(s):0
Sky conditions: clear
Temperature: 82.9 F (28.3 C)
Dew Point: 75.9 F (24.4 C)
Relative Humidity: 79%
Pressure (altimeter): 30.06 in. Hg (1017 hPa)
ob: KMTH 050353Z AUTO 09008KT 10SM CLR 28/24 A3006 RMK AO2 SLP179 T02830244
cycle: 4

Station Type Date Time Source
KMTH TAF 2021/08/04 22:54 UTC NOAA

TAF
AMD KMTH 042153Z 0422/0518 15006KT P6SM VCSH SCT025
TEMPO 0422/0423 VRB10G20KT 5SM -SHRA BKN025
FM050100 12008KT P6SM VCSH SCT025

Example: see airport list